Ernest Shackleton — ZDLS1 — position and weather

sailwx.info

Track history (hours):
 
Tides and Currents Weather Stations Pressure Air Temp Water Temp Dewpoint Dewpoint Depression Visibility Wind Speed Wind Dir Waves Ship Positions

Oceanographic research ship Ernest Shackleton (UK/Norway)

Detailed information on ship capabilities available from University of Delaware's Ocean Information Center and ARCUS's ALIAS (Arctic Logistics Information and Support) project.

Last reported at 2016-Aug-28 12:00 UTC. Time now 2016-Aug-28 14:09 UTC.
Position N 69°12' W 116°30'.

Length 80 m; beam 17 m; draft 7.4 m.

Type: Other ship. MMSI: 740357000.

AWS

Barometer 1027.8 mb
Air temperature 7.4 ° C
Dewpoint 5.8 ° C

Date/timePositionNaut miles runAvg speedWind from/ knotsBaromVisibWave heightAir tempDewpointWater temp
2016-Aug-28 12:00N 69°12' W 116°30'1010.4 1027.8 7.4 5.8
2016-Aug-28 11:00N 69°18' W 116°54'1514.7 1027.5 6.9 5.3
2016-Aug-28 10:00N 69°30' W 117°18'1212.1 1027.0 7.3 5.8
2016-Aug-28 09:00N 69°36' W 117°48'1010.3 1026.8 7.4 6.0
2016-Aug-28 08:00N 69°42' W 118°12'9 8.6 1026.9 7.4 6.2
2016-Aug-28 07:00N 69°48' W 118°30'1212.0 1027.4 7.6 5.8
2016-Aug-28 06:00N 70°00' W 118°30'1212.2 1027.2 7.3 6.0
2016-Aug-28 05:00N 70°12' W 118°36'1212.2 1027.0 7.4 5.9
2016-Aug-28 04:00N 70°24' W 118°42'9 8.5 1027.0 7.2 5.5
2016-Aug-28 03:00N 70°30' W 118°24'1414.4 1026.7 7.4 5.4
2016-Aug-28 02:00N 70°42' W 118°00'4 4.0 1026.2 8.7 4.7
2016-Aug-28 01:00N 70°42' W 117°48'0 0.0 1025.8 9.1 4.0
2016-Aug-28 00:00N 70°42' W 117°48'0 0.0 1025.1 9.1 3.8
2016-Aug-27 23:00N 70°42' W 117°48'0 0.0 1024.8 8.7 3.6
2016-Aug-27 22:00N 70°42' W 117°48'0 0.0 1024.5 8.8 3.3
2016-Aug-27 21:00N 70°42' W 117°48'0 0.0 1024.1 9.1 3.1
2016-Aug-27 20:00N 70°42' W 117°48'0 0.0 1023.4 9.1 2.7
2016-Aug-27 19:00N 70°42' W 117°48'0 0.0 1023.2 8.2 2.3
2016-Aug-27 18:00N 70°42' W 117°48'0 0.0 1023.1 6.6 1.6
2016-Aug-27 17:00N 70°42' W 117°48'0 0.0 1021.9 5.2 0.8
2016-Aug-27 16:00N 70°42' W 117°48'0 0.0 1021.7 4.6 0.8
2016-Aug-27 15:00N 70°42' W 117°48'0 0.0 1022.1 4.3 0.8
2016-Aug-27 14:00N 70°42' W 117°48'0 0.0 1021.5 4.0 0.8
2016-Aug-27 13:00N 70°42' W 117°48'0 0.0 1020.7 3.7 1.0
2016-Aug-27 12:00N 70°42' W 117°48'0 0.0 1021.2 3.6 1.0
2016-Aug-27 11:00N 70°42' W 117°48'0 0.0 1021.0 3.6 0.9
2016-Aug-27 10:00N 70°42' W 117°48'0 0.0 1020.7 3.7 1.2
2016-Aug-27 09:00N 70°42' W 117°48'0 0.0 1020.9 3.9 1.9
2016-Aug-27 06:00N 70°42' W 117°48'0 0.0 1020.3 4.7 0.5
2016-Aug-27 05:00N 70°42' W 117°48'0 0.0 1020.2 4.8 0.4
2016-Aug-27 04:00N 70°42' W 117°48'0 0.0 1020.1 5.3 0.4
2016-Aug-27 03:00N 70°42' W 117°48'0 0.0 1020.0 5.8 0.1
2016-Aug-27 02:00N 70°42' W 117°48'0 0.0 1019.7 6.4-0.2
2016-Aug-27 01:00N 70°42' W 117°48'0 0.0 1019.4 6.6-0.2
2016-Aug-27 00:00N 70°42' W 117°48'0 0.0 1019.0 6.7-0.6
2016-Aug-26 23:00N 70°42' W 117°48'0 0.0 1018.8 7.3-0.9
2016-Aug-26 22:00N 70°42' W 117°48'0 0.0 1018.5 6.2-1.2
2016-Aug-26 21:00N 70°42' W 117°48'0 0.0 1018.1 5.8 0.5
2016-Aug-26 20:00N 70°42' W 117°48'8 7.9 1017.8 5.4 0.5
2016-Aug-26 19:00N 70°42' W 118°12'4 4.0 1018.0 4.7 0.8
2016-Aug-26 18:00N 70°42' W 118°00'4 4.0 1017.6 4.4 1.2
2016-Aug-26 17:00N 70°42' W 117°48'0 0.0 1017.6 5.0 1.1
2016-Aug-26 16:00N 70°42' W 117°48'0 0.0 1017.2 5.2 1.2
2016-Aug-26 15:00N 70°42' W 117°48'0 0.0 1017.2 4.5 0.8
2016-Aug-26 14:00N 70°42' W 117°48'0 0.0 1017.1 3.6 0.9
2016-Aug-26 13:00N 70°42' W 117°48'0 0.0 1016.9 2.8 0.3
2016-Aug-26 12:00N 70°42' W 117°48'0 0.0 1016.7 2.8 0.1
2016-Aug-26 11:00N 70°42' W 117°48'0 0.0 1016.3 3.2-0.0
2016-Aug-26 10:00N 70°42' W 117°48'0 0.0 1016.3 3.7-0.1
2016-Aug-26 09:00N 70°42' W 117°48'0 0.0 1016.2 3.6-0.1
2016-Aug-26 08:00N 70°42' W 117°48'0 0.0 1016.0 3.3-0.2
2016-Aug-26 07:00N 70°42' W 117°48'0 0.0 1016.0 4.3-0.0
2016-Aug-26 06:00N 70°42' W 117°48'0 0.0 1016.0 4.6 0.1
2016-Aug-26 05:00N 70°42' W 117°48'0 0.0 1016.1 3.8 0.5
2016-Aug-26 04:00N 70°42' W 117°48'0 0.0 1016.4 3.7 1.2
2016-Aug-26 03:00N 70°42' W 117°48'0 0.0 1016.6 4.5 0.4
2016-Aug-26 02:00N 70°42' W 117°48'0 0.0 1016.9 4.2 0.5
2016-Aug-26 01:00N 70°42' W 117°48'0 0.0 1016.9 4.2 0.7
2016-Aug-26 00:00N 70°42' W 117°48'0 0.0 1017.2 3.9 0.6
2016-Aug-25 23:00N 70°42' W 117°48'0 0.0 1017.5 4.1 0.7
2016-Aug-25 22:00N 70°42' W 117°48'0 0.0 1017.8 3.8 1.1
2016-Aug-25 21:00N 70°42' W 117°48'0 0.0 1017.9 3.4 1.3
2016-Aug-25 20:00N 70°42' W 117°48'0 0.0 1018.2 3.4 1.9
2016-Aug-25 19:00N 70°42' W 117°48'0 0.0 1018.6 3.2 2.2
2016-Aug-25 18:00N 70°42' W 117°48'0 0.0 1018.8 4.0 2.5
2016-Aug-25 17:00N 70°42' W 117°48'0 0.0 1019.4 3.8 2.5
2016-Aug-25 16:00N 70°42' W 117°48'0 0.0 1019.9 4.2 1.5
2016-Aug-25 15:00N 70°42' W 117°48'0 0.0 1020.3 4.1 1.3
2016-Aug-25 14:00N 70°42' W 117°48'0 0.0 1021.1 3.6 0.9
2016-Aug-25 13:00N 70°42' W 117°48'0 0.0 1021.7 3.3 0.7
2016-Aug-25 12:00N 70°42' W 117°48'0 0.0 1022.1 3.0 0.4
2016-Aug-25 11:00N 70°42' W 117°48'0 0.0 1022.4 3.0 0.3
2016-Aug-25 10:00N 70°42' W 117°48'0 0.0 1022.7 3.1-0.1
2016-Aug-25 09:00N 70°42' W 117°48'0 0.0 1023.0 2.4-0.0
2016-Aug-25 08:00N 70°42' W 117°48'0 0.0 1023.5 2.4-0.1
2016-Aug-25 07:00N 70°42' W 117°48'0 0.0 1023.7 2.0-0.5
2016-Aug-25 06:00N 70°42' W 117°48'0 0.0 1024.2 2.8-1.7
2016-Aug-25 05:00N 70°42' W 117°48'0 0.0 1024.5 2.9-4.1
2016-Aug-25 04:00N 70°42' W 117°48'0 0.0 1024.7 4.4-4.1
2016-Aug-25 03:00N 70°42' W 117°48'0 0.0 1025.0 5.6-5.2
2016-Aug-25 02:00N 70°42' W 117°48'0 0.0 1025.4 6.2-4.8
2016-Aug-25 01:00N 70°42' W 117°48'0 0.0 1025.8 6.9-5.1
2016-Aug-25 00:00N 70°42' W 117°48'0 0.0 1025.9 7.9-8.3
2016-Aug-24 23:00N 70°42' W 117°48'0 0.0 1026.0 6.9-3.3
2016-Aug-24 22:00N 70°42' W 117°48'0 0.0 1026.3 7.6-3.7
2016-Aug-24 21:00N 70°42' W 117°48'0 0.0 1026.3 7.1-3.2
2016-Aug-24 20:00N 70°42' W 117°48'0 0.0 1026.7 7.1-1.7
2016-Aug-24 19:00N 70°42' W 117°48'0 0.0 1026.9 5.5-1.6
2016-Aug-24 18:00N 70°42' W 117°48'0 0.0 1027.0 4.5-2.0
2016-Aug-24 17:00N 70°42' W 117°48'0 0.0 1027.3 2.8-2.5
2016-Aug-24 16:00N 70°42' W 117°48'0 0.0 1027.4 2.2-1.8
2016-Aug-24 15:00N 70°42' W 117°48'0 0.0 1027.4 2.3-1.8
2016-Aug-24 14:00N 70°42' W 117°48'0 0.0 1026.8 1.3-1.7
2016-Aug-24 13:00N 70°42' W 117°48'0 0.0 1026.5 1.1-1.6
2016-Aug-24 12:00N 70°42' W 117°48'0 0.0 1026.0 2.1-1.3
2016-Aug-24 11:00N 70°42' W 117°48'0 0.0 1025.4 2.5-1.3
2016-Aug-24 10:00N 70°42' W 117°48'0 0.0 1025.0 2.3-0.9
2016-Aug-24 09:00N 70°42' W 117°48'0 0.0 1024.4 1.6-1.5
2016-Aug-24 08:00N 70°42' W 117°48'0 0.0 1023.8 2.0-1.5
2016-Aug-24 07:00N 70°42' W 117°48'0 0.0 1023.1 2.4-1.4
2016-Aug-24 06:00N 70°42' W 117°48'0 0.0 1022.8 2.5-1.4
2016-Aug-24 05:00N 70°42' W 117°48'0 0.0 1022.0 3.2-1.3
2016-Aug-24 04:00N 70°42' W 117°48'0 0.0 1021.2 2.9-1.0
2016-Aug-24 03:00N 70°42' W 117°48'0 0.0 1020.1 3.3-0.9
2016-Aug-24 02:00N 70°42' W 117°48'0 0.0 1019.6 3.6-1.2
2016-Aug-24 01:00N 70°42' W 117°48'0 0.0 1018.9 4.3-0.4
2016-Aug-24 00:00N 70°42' W 117°48'0 0.0 1017.7 4.8 0.3
2016-Aug-23 23:00N 70°42' W 117°48'0 0.0 1016.7 5.4 0.8
2016-Aug-23 22:00N 70°42' W 117°48'0 0.0 1016.1 4.8 1.6
2016-Aug-23 21:00N 70°42' W 117°48'0 0.0 1014.8 5.1 2.2
2016-Aug-23 20:00N 70°42' W 117°48'0 0.0 1013.9 6.2 3.3
2016-Aug-23 19:00N 70°42' W 117°48'0 0.0 1012.7 7.1 4.5
2016-Aug-23 18:00N 70°42' W 117°48'0 0.0 1011.4 8.1 7.7
2016-Aug-23 17:00N 70°42' W 117°48'0 0.0 1011.2 7.0 6.4
2016-Aug-23 16:00N 70°42' W 117°48'0 0.0 1010.7 8.2 6.2
2016-Aug-23 15:00N 70°42' W 117°48'0 0.0 1009.7 7.9 6.1
2016-Aug-23 14:00N 70°42' W 117°48'0 0.0 1009.1 8.0 6.0
2016-Aug-23 13:00N 70°42' W 117°48'2 2.0 1008.9 8.0 5.7
2016-Aug-23 12:00N 70°42' W 117°54'1010.0 1008.2 7.3 5.7
2016-Aug-23 11:00N 70°36' W 118°18'1414.4 1008.2 7.3 6.1
2016-Aug-23 10:00N 70°24' W 118°42'1212.2 1007.7 7.4 6.5
2016-Aug-23 09:00N 70°12' W 118°36'1212.2 1007.2 7.4 6.4
2016-Aug-23 08:00N 70°00' W 118°30'1212.0 1007.5 7.5 6.5
2016-Aug-23 07:00N 69°48' W 118°30'9 8.6 1007.5 7.6 6.3
2016-Aug-23 06:00N 69°42' W 118°12'1212.0 1008.1 8.4 6.6
2016-Aug-23 05:00N 69°36' W 117°42'1514.7 1009.1 7.9 6.1
2016-Aug-23 04:00N 69°24' W 117°18'1212.2 1009.8 8.4 6.1
2016-Aug-23 03:00N 69°18' W 116°48'1010.4 1010.3 7.4 5.9
2016-Aug-23 02:00N 69°12' W 116°24'1212.2 1011.2 7.3 5.6
2016-Aug-23 01:00N 69°06' W 115°54'9 8.8 1012.2 7.3 5.6
2016-Aug-23 00:00N 69°00' W 115°36'1110.8 1013.2 7.4 5.1
2016-Aug-22 23:00N 69°00' W 115°06'1110.5 1014.2 8.0 4.9
2016-Aug-22 22:00N 68°54' W 114°42'1212.4 1014.8 7.4 3.9
2016-Aug-22 21:00N 68°48' W 114°12'1212.4 1015.3 7.8 3.7
2016-Aug-22 20:00N 68°42' W 113°42'7 7.4 1016.0 7.9 4.3
2016-Aug-22 19:00N 68°36' W 113°30'7 7.4 1016.4 6.1 3.8
2016-Aug-22 18:00N 68°30' W 113°18'1312.5 1016.8 5.8 4.5
2016-Aug-22 17:00N 68°24' W 112°48'1111.0 1017.2 5.8 4.7
2016-Aug-22 16:00N 68°24' W 112°18'7 6.6 1017.1 5.8 4.3
2016-Aug-22 15:00N 68°24' W 112°00'9 8.8 1017.4 5.4 4.1
2016-Aug-22 14:00N 68°24' W 111°36'1312.5 1017.5 4.8 3.5
2016-Aug-22 13:00N 68°30' W 111°06'1111.0 1017.4 4.3 3.1
2016-Aug-22 12:00N 68°30' W 110°36'1111.0 1017.4 4.5 3.0
2016-Aug-22 11:00N 68°30' W 110°06'1312.5 1017.0 4.3 2.5
2016-Aug-22 10:00N 68°36' W 109°36'1110.9 1016.5 4.2 2.5
2016-Aug-22 09:00N 68°36' W 109°06'1212.5 1016.0 4.4 2.6
2016-Aug-22 08:00N 68°42' W 108°36'1212.4 1015.5 4.6 3.1
2016-Aug-22 07:00N 68°48' W 108°06'1110.8 1015.0 5.0 2.7
2016-Aug-22 06:00N 68°48' W 107°36'1212.4 1014.1 5.1 2.9
2016-Aug-22 05:00N 68°54' W 107°06'1212.3 1013.4 5.0 3.2
2016-Aug-22 04:00N 69°00' W 106°36'1110.8 1012.5 5.0 3.7
2016-Aug-22 03:00N 69°00' W 106°06'1212.3 1011.2 5.5 3.7
2016-Aug-22 02:00N 68°54' W 105°36'1110.5 1009.9 5.7 4.2
2016-Aug-22 01:00N 69°00' W 105°12'6 6.4 1008.7 6.3 4.8
2016-Aug-22 00:00N 69°06' W 105°06'0 0.0 1007.9 6.7 4.8
2016-Aug-21 23:00N 69°06' W 105°06'0 0.0 1006.8 8.7 6.5
2016-Aug-21 22:00N 69°06' W 105°06'0 0.0 1005.4 15.010.4
2016-Aug-21 21:00N 69°06' W 105°06'0 0.0 1005.0 13.7 9.2
2016-Aug-21 20:00N 69°06' W 105°06'0 0.0 1005.1 14.6 8.9
2016-Aug-21 19:00N 69°06' W 105°06'0 0.0 1004.9 16.7 9.7
2016-Aug-21 18:00N 69°06' W 105°06'0 0.0 1004.6 15.010.1
2016-Aug-21 17:00N 69°06' W 105°06'0 0.0 1004.7 14.110.2
2016-Aug-21 16:00N 69°06' W 105°06'0 0.0 1004.7 15.7 9.8
2016-Aug-21 15:00N 69°06' W 105°06'0 0.0 1004.4 12.7 9.4
2016-Aug-21 14:00N 69°06' W 105°06'0 0.0 1004.3 12.1 9.1
2016-Aug-21 13:00N 69°06' W 105°06'0 0.0 1004.5 12.7 8.5
2016-Aug-21 12:00N 69°06' W 105°06'0 0.0 1004.6 11.2 8.8
2016-Aug-21 11:00N 69°06' W 105°06'0 0.0 1004.8 10.3 8.6
2016-Aug-21 10:00N 69°06' W 105°06'0 0.0 1005.0 9.8 8.7
2016-Aug-21 09:00N 69°06' W 105°06'0 0.0 1005.4 9.8 8.7
2016-Aug-21 08:00N 69°06' W 105°06'0 0.0 1005.8 9.8 8.5
2016-Aug-21 07:00N 69°06' W 105°06'0 0.0 1006.1 9.8 8.5
2016-Aug-21 06:00N 69°06' W 105°06'0 0.0 1006.4 9.7 8.5
2016-Aug-21 05:00N 69°06' W 105°06'0 0.0 1006.7 9.8 8.4
2016-Aug-21 04:00N 69°06' W 105°06'0 0.0 1007.0 10.1 8.4
2016-Aug-21 03:00N 69°06' W 105°06'0 0.0 1007.2 11.0 8.6
2016-Aug-21 02:00N 69°06' W 105°06'0 0.0 1007.6 12.5 9.2
2016-Aug-21 01:00N 69°06' W 105°06'0 0.0 1008.0 15.0 9.8
2016-Aug-21 00:00N 69°06' W 105°06'6 6.0 1008.1 16.5 9.9
2016-Aug-20 23:00N 69°00' W 105°06'7 7.4 1008.2 15.4 9.4
2016-Aug-20 22:00N 69°06' W 105°18'0 0.0 1008.6 15.5 9.3
2016-Aug-20 21:00N 69°06' W 105°18'0 0.0 1008.9 15.9 9.2
2016-Aug-20 20:00N 69°06' W 105°18'0 0.0 1009.2 13.3 8.6
2016-Aug-20 19:00N 69°06' W 105°18'0 0.0 1009.1 13.7 8.8
2016-Aug-20 18:00N 69°06' W 105°18'0 0.0 1009.2 14.6 8.6
2016-Aug-20 17:00N 69°06' W 105°18'0 0.0 1009.0 13.8 9.0
2016-Aug-20 16:00N 69°06' W 105°18'1212.2 1009.2 11.6 8.8
2016-Aug-20 15:00N 68°54' W 105°24'9 8.8 1009.2 9.6 8.0
2016-Aug-20 14:00N 68°48' W 105°06'1616.4 1008.7 8.8 7.7
2016-Aug-20 13:00N 68°42' W 104°24'1313.1 1008.8 8.9 7.4
2016-Aug-20 12:00N 68°42' W 103°48'1313.1 1008.7 8.3 6.9
2016-Aug-20 11:00N 68°42' W 103°12'1313.1 1008.9 8.0 6.0
2016-Aug-20 10:00N 68°42' W 102°36'1212.4 1009.0 8.4 5.6
2016-Aug-20 09:00N 68°48' W 102°06'1616.1 1009.6 7.6 4.6
2016-Aug-20 08:00N 69°00' W 101°36'1212.3 1010.3 6.8 3.3
2016-Aug-20 07:00N 69°06' W 101°06'1616.0 1011.1 5.9 2.6
2016-Aug-20 06:00N 69°18' W 100°36'1010.4 1011.7 5.1 2.2
2016-Aug-20 05:00N 69°24' W 100°12'1413.6 1011.7 4.6 1.8
2016-Aug-20 04:00N 69°36' W 099°54'1413.5 1011.9 3.8 1.0
2016-Aug-20 03:00N 69°48' W 099°36'1919.0 1012.5 3.4 0.6
2016-Aug-20 02:00N 70°06' W 099°18'1313.5 1012.6 3.4 0.8
2016-Aug-20 01:00N 70°18' W 099°00'6 6.3 1012.6 3.5 0.9
2016-Aug-20 00:00N 70°24' W 098°54'1313.4 1013.0 3.2 1.1
2016-Aug-19 23:00N 70°36' W 098°36'1313.4 1013.2 3.0 1.2
2016-Aug-19 22:00N 70°48' W 098°18'1313.4 1013.6 2.5 1.0
2016-Aug-19 21:00N 71°00' W 098°00'1414.3 1013.5 2.4 0.6
2016-Aug-19 20:00N 71°12' W 097°36'8 8.3 1013.6 2.1 0.6
2016-Aug-19 19:00N 71°18' W 097°18'8 8.3 1014.5 2.4 0.2
2016-Aug-19 18:00N 71°24' W 097°00'1414.2 1013.9 2.2 0.5
2016-Aug-19 17:00N 71°36' W 096°36'1414.2 1013.5 2.5 0.5
2016-Aug-19 16:00N 71°48' W 096°12'8 8.2 1013.5 2.4 0.4
2016-Aug-19 15:00N 71°54' W 095°54'7 7.5 1014.3 2.3-0.0
2016-Aug-19 14:00N 71°54' W 095°30'1111.1 1014.8 2.3-0.4
2016-Aug-19 13:00N 72°00' W 095°00'1111.1 1015.7 2.4-1.1
2016-Aug-19 12:00N 72°00' W 094°24'1111.1 1016.4 3.0-2.1
2016-Aug-19 11:00N 71°54' W 093°54'10 9.6 1016.8 2.4-0.8
2016-Aug-19 10:00N 72°00' W 093°30'8 8.2 1016.7 1.6-1.7
2016-Aug-19 09:00N 72°06' W 093°12'1414.1 1017.0 1.2-2.0
2016-Aug-19 08:00N 72°18' W 092°48'9 9.4 1016.6 1.0-2.5
2016-Aug-19 07:00N 72°24' W 092°24'9 9.4 1016.4 1.6-1.6
2016-Aug-19 06:00N 72°30' W 092°00'9 9.4 1016.0 1.9-1.2
2016-Aug-19 05:00N 72°36' W 091°36'9 9.3 1015.9 1.6-1.8
2016-Aug-19 04:00N 72°42' W 091°12'1413.9 1015.8 1.3-1.6
2016-Aug-19 03:00N 72°54' W 090°48'9 9.2 1015.2 1.7-1.7
2016-Aug-19 02:00N 73°00' W 090°24'8 8.0 1014.9 1.7-1.1
2016-Aug-19 01:00N 73°06' W 090°06'1313.1 1014.7 1.7-1.2
2016-Aug-19 00:00N 73°18' W 089°48'7 6.9 1014.4 1.9-2.6
2016-Aug-18 23:00N 73°24' W 089°36'1514.7 1013.8 1.3-1.1
2016-Aug-18 22:00N 73°36' W 089°06'3 3.4 1013.2 1.0-2.6
2016-Aug-18 21:00N 73°36' W 088°54'1615.7 1012.7 0.5-4.0
2016-Aug-18 20:00N 73°48' W 088°18'1211.7 1011.3 -0.4-2.1
2016-Aug-18 19:00N 73°54' W 087°42'1010.0 1010.8 0.1-4.5
2016-Aug-18 18:00N 73°54' W 087°06'1211.6 1009.4 0.6-4.1
2016-Aug-18 17:00N 74°00' W 086°30'0 0.0 1008.6 0.8-3.8
2016-Aug-18 16:00N 74°00' W 086°30'1514.6 1007.8 0.9-3.3
2016-Aug-18 15:00N 73°54' W 085°42'1211.6 1006.8 1.4-3.1
2016-Aug-18 14:00N 73°54' W 085°00'1010.0 1005.9 1.4-2.8
2016-Aug-18 13:00N 73°54' W 084°24'1211.6 1005.5 1.8-2.2
2016-Aug-18 12:00N 73°54' W 083°42'   1004.9 2.0-1.5
Track history (hours):
 
Tides and Currents Weather Stations Pressure Air Temp Water Temp Dewpoint Dewpoint Depression Visibility Wind Speed Wind Dir Waves Ship Positions

Oceanographic research ship Ernest Shackleton (UK/Norway)

Detailed information on ship capabilities available from University of Delaware's Ocean Information Center and ARCUS's ALIAS (Arctic Logistics Information and Support) project.

Last reported at 2016-Aug-28 12:00 UTC. Time now 2016-Aug-28 14:09 UTC.
Position N 69°12' W 116°30'.

Length 80 m; beam 17 m; draft 7.4 m.

Type: Other ship. MMSI: 740357000.

AWS

Barometer 1027.8 mb
Air temperature 7.4 ° C
Dewpoint 5.8 ° C

Date/timePositionNaut miles runAvg speedWind from/ knotsBaromVisibWave heightAir tempDewpointWater temp
2016-Aug-28 12:00N 69°12' W 116°30'1010.4 1027.8 7.4 5.8
2016-Aug-28 11:00N 69°18' W 116°54'1514.7 1027.5 6.9 5.3
2016-Aug-28 10:00N 69°30' W 117°18'1212.1 1027.0 7.3 5.8
2016-Aug-28 09:00N 69°36' W 117°48'1010.3 1026.8 7.4 6.0
2016-Aug-28 08:00N 69°42' W 118°12'9 8.6 1026.9 7.4 6.2
2016-Aug-28 07:00N 69°48' W 118°30'1212.0 1027.4 7.6 5.8
2016-Aug-28 06:00N 70°00' W 118°30'1212.2 1027.2 7.3 6.0
2016-Aug-28 05:00N 70°12' W 118°36'1212.2 1027.0 7.4 5.9
2016-Aug-28 04:00N 70°24' W 118°42'9 8.5 1027.0 7.2 5.5
2016-Aug-28 03:00N 70°30' W 118°24'1414.4 1026.7 7.4 5.4
2016-Aug-28 02:00N 70°42' W 118°00'4 4.0 1026.2 8.7 4.7
2016-Aug-28 01:00N 70°42' W 117°48'0 0.0 1025.8 9.1 4.0
2016-Aug-28 00:00N 70°42' W 117°48'0 0.0 1025.1 9.1 3.8
2016-Aug-27 23:00N 70°42' W 117°48'0 0.0 1024.8 8.7 3.6
2016-Aug-27 22:00N 70°42' W 117°48'0 0.0 1024.5 8.8 3.3
2016-Aug-27 21:00N 70°42' W 117°48'0 0.0 1024.1 9.1 3.1
2016-Aug-27 20:00N 70°42' W 117°48'0 0.0 1023.4 9.1 2.7
2016-Aug-27 19:00N 70°42' W 117°48'0 0.0 1023.2 8.2 2.3
2016-Aug-27 18:00N 70°42' W 117°48'0 0.0 1023.1 6.6 1.6
2016-Aug-27 17:00N 70°42' W 117°48'0 0.0 1021.9 5.2 0.8
2016-Aug-27 16:00N 70°42' W 117°48'0 0.0 1021.7 4.6 0.8
2016-Aug-27 15:00N 70°42' W 117°48'0 0.0 1022.1 4.3 0.8
2016-Aug-27 14:00N 70°42' W 117°48'0 0.0 1021.5 4.0 0.8
2016-Aug-27 13:00N 70°42' W 117°48'0 0.0 1020.7 3.7 1.0
2016-Aug-27 12:00N 70°42' W 117°48'0 0.0 1021.2 3.6 1.0
2016-Aug-27 11:00N 70°42' W 117°48'0 0.0 1021.0 3.6 0.9
2016-Aug-27 10:00N 70°42' W 117°48'0 0.0 1020.7 3.7 1.2
2016-Aug-27 09:00N 70°42' W 117°48'0 0.0 1020.9 3.9 1.9
2016-Aug-27 06:00N 70°42' W 117°48'0 0.0 1020.3 4.7 0.5
2016-Aug-27 05:00N 70°42' W 117°48'0 0.0 1020.2 4.8 0.4
2016-Aug-27 04:00N 70°42' W 117°48'0 0.0 1020.1 5.3 0.4
2016-Aug-27 03:00N 70°42' W 117°48'0 0.0 1020.0 5.8 0.1
2016-Aug-27 02:00N 70°42' W 117°48'0 0.0 1019.7 6.4-0.2
2016-Aug-27 01:00N 70°42' W 117°48'0 0.0 1019.4 6.6-0.2
2016-Aug-27 00:00N 70°42' W 117°48'0 0.0 1019.0 6.7-0.6
2016-Aug-26 23:00N 70°42' W 117°48'0 0.0 1018.8 7.3-0.9
2016-Aug-26 22:00N 70°42' W 117°48'0 0.0 1018.5 6.2-1.2
2016-Aug-26 21:00N 70°42' W 117°48'0 0.0 1018.1 5.8 0.5
2016-Aug-26 20:00N 70°42' W 117°48'8 7.9 1017.8 5.4 0.5
2016-Aug-26 19:00N 70°42' W 118°12'4 4.0 1018.0 4.7 0.8
2016-Aug-26 18:00N 70°42' W 118°00'4 4.0 1017.6 4.4 1.2
2016-Aug-26 17:00N 70°42' W 117°48'0 0.0 1017.6 5.0 1.1
2016-Aug-26 16:00N 70°42' W 117°48'0 0.0 1017.2 5.2 1.2
2016-Aug-26 15:00N 70°42' W 117°48'0 0.0 1017.2 4.5 0.8
2016-Aug-26 14:00N 70°42' W 117°48'0 0.0 1017.1 3.6 0.9
2016-Aug-26 13:00N 70°42' W 117°48'0 0.0 1016.9 2.8 0.3
2016-Aug-26 12:00N 70°42' W 117°48'0 0.0 1016.7 2.8 0.1
2016-Aug-26 11:00N 70°42' W 117°48'0 0.0 1016.3 3.2-0.0
2016-Aug-26 10:00N 70°42' W 117°48'0 0.0 1016.3 3.7-0.1
2016-Aug-26 09:00N 70°42' W 117°48'0 0.0 1016.2 3.6-0.1
2016-Aug-26 08:00N 70°42' W 117°48'0 0.0 1016.0 3.3-0.2
2016-Aug-26 07:00N 70°42' W 117°48'0 0.0 1016.0 4.3-0.0
2016-Aug-26 06:00N 70°42' W 117°48'0 0.0 1016.0 4.6 0.1
2016-Aug-26 05:00N 70°42' W 117°48'0 0.0 1016.1 3.8 0.5
2016-Aug-26 04:00N 70°42' W 117°48'0 0.0 1016.4 3.7 1.2
2016-Aug-26 03:00N 70°42' W 117°48'0 0.0 1016.6 4.5 0.4
2016-Aug-26 02:00N 70°42' W 117°48'0 0.0 1016.9 4.2 0.5
2016-Aug-26 01:00N 70°42' W 117°48'0 0.0 1016.9 4.2 0.7
2016-Aug-26 00:00N 70°42' W 117°48'0 0.0 1017.2 3.9 0.6
2016-Aug-25 23:00N 70°42' W 117°48'0 0.0 1017.5 4.1 0.7
2016-Aug-25 22:00N 70°42' W 117°48'0 0.0 1017.8 3.8 1.1
2016-Aug-25 21:00N 70°42' W 117°48'0 0.0 1017.9 3.4 1.3
2016-Aug-25 20:00N 70°42' W 117°48'0 0.0 1018.2 3.4 1.9
2016-Aug-25 19:00N 70°42' W 117°48'0 0.0 1018.6 3.2 2.2
2016-Aug-25 18:00N 70°42' W 117°48'0 0.0 1018.8 4.0 2.5
2016-Aug-25 17:00N 70°42' W 117°48'0 0.0 1019.4 3.8 2.5
2016-Aug-25 16:00N 70°42' W 117°48'0 0.0 1019.9 4.2 1.5
2016-Aug-25 15:00N 70°42' W 117°48'0 0.0 1020.3 4.1 1.3
2016-Aug-25 14:00N 70°42' W 117°48'0 0.0 1021.1 3.6 0.9
2016-Aug-25 13:00N 70°42' W 117°48'0 0.0 1021.7 3.3 0.7
2016-Aug-25 12:00N 70°42' W 117°48'0 0.0 1022.1 3.0 0.4
2016-Aug-25 11:00N 70°42' W 117°48'0 0.0 1022.4 3.0 0.3
2016-Aug-25 10:00N 70°42' W 117°48'0 0.0 1022.7 3.1-0.1
2016-Aug-25 09:00N 70°42' W 117°48'0 0.0 1023.0 2.4-0.0
2016-Aug-25 08:00N 70°42' W 117°48'0 0.0 1023.5 2.4-0.1
2016-Aug-25 07:00N 70°42' W 117°48'0 0.0 1023.7 2.0-0.5
2016-Aug-25 06:00N 70°42' W 117°48'0 0.0 1024.2 2.8-1.7
2016-Aug-25 05:00N 70°42' W 117°48'0 0.0 1024.5 2.9-4.1
2016-Aug-25 04:00N 70°42' W 117°48'0 0.0 1024.7 4.4-4.1
2016-Aug-25 03:00N 70°42' W 117°48'0 0.0 1025.0 5.6-5.2
2016-Aug-25 02:00N 70°42' W 117°48'0 0.0 1025.4 6.2-4.8
2016-Aug-25 01:00N 70°42' W 117°48'0 0.0 1025.8 6.9-5.1
2016-Aug-25 00:00N 70°42' W 117°48'0 0.0 1025.9 7.9-8.3
2016-Aug-24 23:00N 70°42' W 117°48'0 0.0 1026.0 6.9-3.3
2016-Aug-24 22:00N 70°42' W 117°48'0 0.0 1026.3 7.6-3.7
2016-Aug-24 21:00N 70°42' W 117°48'0 0.0 1026.3 7.1-3.2
2016-Aug-24 20:00N 70°42' W 117°48'0 0.0 1026.7 7.1-1.7
2016-Aug-24 19:00N 70°42' W 117°48'0 0.0 1026.9 5.5-1.6
2016-Aug-24 18:00N 70°42' W 117°48'0 0.0 1027.0 4.5-2.0
2016-Aug-24 17:00N 70°42' W 117°48'0 0.0 1027.3 2.8-2.5
2016-Aug-24 16:00N 70°42' W 117°48'0 0.0 1027.4 2.2-1.8
2016-Aug-24 15:00N 70°42' W 117°48'0 0.0 1027.4 2.3-1.8
2016-Aug-24 14:00N 70°42' W 117°48'0 0.0 1026.8 1.3-1.7
2016-Aug-24 13:00N 70°42' W 117°48'0 0.0 1026.5 1.1-1.6
2016-Aug-24 12:00N 70°42' W 117°48'0 0.0 1026.0 2.1-1.3
2016-Aug-24 11:00N 70°42' W 117°48'0 0.0 1025.4 2.5-1.3
2016-Aug-24 10:00N 70°42' W 117°48'0 0.0 1025.0 2.3-0.9
2016-Aug-24 09:00N 70°42' W 117°48'0 0.0 1024.4 1.6-1.5
2016-Aug-24 08:00N 70°42' W 117°48'0 0.0 1023.8 2.0-1.5
2016-Aug-24 07:00N 70°42' W 117°48'0 0.0 1023.1 2.4-1.4
2016-Aug-24 06:00N 70°42' W 117°48'0 0.0 1022.8 2.5-1.4
2016-Aug-24 05:00N 70°42' W 117°48'0 0.0 1022.0 3.2-1.3
2016-Aug-24 04:00N 70°42' W 117°48'0 0.0 1021.2 2.9-1.0
2016-Aug-24 03:00N 70°42' W 117°48'0 0.0 1020.1 3.3-0.9
2016-Aug-24 02:00N 70°42' W 117°48'0 0.0 1019.6 3.6-1.2
2016-Aug-24 01:00N 70°42' W 117°48'0 0.0 1018.9 4.3-0.4
2016-Aug-24 00:00N 70°42' W 117°48'0 0.0 1017.7 4.8 0.3
2016-Aug-23 23:00N 70°42' W 117°48'0 0.0 1016.7 5.4 0.8
2016-Aug-23 22:00N 70°42' W 117°48'0 0.0 1016.1 4.8 1.6
2016-Aug-23 21:00N 70°42' W 117°48'0 0.0 1014.8 5.1 2.2
2016-Aug-23 20:00N 70°42' W 117°48'0 0.0 1013.9 6.2 3.3
2016-Aug-23 19:00N 70°42' W 117°48'0 0.0 1012.7 7.1 4.5
2016-Aug-23 18:00N 70°42' W 117°48'0 0.0 1011.4 8.1 7.7
2016-Aug-23 17:00N 70°42' W 117°48'0 0.0 1011.2 7.0 6.4
2016-Aug-23 16:00N 70°42' W 117°48'0 0.0 1010.7 8.2 6.2
2016-Aug-23 15:00N 70°42' W 117°48'0 0.0 1009.7 7.9 6.1
2016-Aug-23 14:00N 70°42' W 117°48'0 0.0 1009.1 8.0 6.0
2016-Aug-23 13:00N 70°42' W 117°48'2 2.0 1008.9 8.0 5.7
2016-Aug-23 12:00N 70°42' W 117°54'1010.0 1008.2 7.3 5.7
2016-Aug-23 11:00N 70°36' W 118°18'1414.4 1008.2 7.3 6.1
2016-Aug-23 10:00N 70°24' W 118°42'1212.2 1007.7 7.4 6.5
2016-Aug-23 09:00N 70°12' W 118°36'1212.2 1007.2 7.4 6.4
2016-Aug-23 08:00N 70°00' W 118°30'1212.0 1007.5 7.5 6.5
2016-Aug-23 07:00N 69°48' W 118°30'9 8.6 1007.5 7.6 6.3
2016-Aug-23 06:00N 69°42' W 118°12'1212.0 1008.1 8.4 6.6
2016-Aug-23 05:00N 69°36' W 117°42'1514.7 1009.1 7.9 6.1
2016-Aug-23 04:00N 69°24' W 117°18'1212.2 1009.8 8.4 6.1
2016-Aug-23 03:00N 69°18' W 116°48'1010.4 1010.3 7.4 5.9
2016-Aug-23 02:00N 69°12' W 116°24'1212.2 1011.2 7.3 5.6
2016-Aug-23 01:00N 69°06' W 115°54'9 8.8 1012.2 7.3 5.6
2016-Aug-23 00:00N 69°00' W 115°36'1110.8 1013.2 7.4 5.1
2016-Aug-22 23:00N 69°00' W 115°06'1110.5 1014.2 8.0 4.9
2016-Aug-22 22:00N 68°54' W 114°42'1212.4 1014.8 7.4 3.9
2016-Aug-22 21:00N 68°48' W 114°12'1212.4 1015.3 7.8 3.7
2016-Aug-22 20:00N 68°42' W 113°42'7 7.4 1016.0 7.9 4.3
2016-Aug-22 19:00N 68°36' W 113°30'7 7.4 1016.4 6.1 3.8
2016-Aug-22 18:00N 68°30' W 113°18'1312.5 1016.8 5.8 4.5
2016-Aug-22 17:00N 68°24' W 112°48'1111.0 1017.2 5.8 4.7
2016-Aug-22 16:00N 68°24' W 112°18'7 6.6 1017.1 5.8 4.3
2016-Aug-22 15:00N 68°24' W 112°00'9 8.8 1017.4 5.4 4.1
2016-Aug-22 14:00N 68°24' W 111°36'1312.5 1017.5 4.8 3.5
2016-Aug-22 13:00N 68°30' W 111°06'1111.0 1017.4 4.3 3.1
2016-Aug-22 12:00N 68°30' W 110°36'1111.0 1017.4 4.5 3.0
2016-Aug-22 11:00N 68°30' W 110°06'1312.5 1017.0 4.3 2.5
2016-Aug-22 10:00N 68°36' W 109°36'1110.9 1016.5 4.2 2.5
2016-Aug-22 09:00N 68°36' W 109°06'1212.5 1016.0 4.4 2.6
2016-Aug-22 08:00N 68°42' W 108°36'1212.4 1015.5 4.6 3.1
2016-Aug-22 07:00N 68°48' W 108°06'1110.8 1015.0 5.0 2.7
2016-Aug-22 06:00N 68°48' W 107°36'1212.4 1014.1 5.1 2.9
2016-Aug-22 05:00N 68°54' W 107°06'1212.3 1013.4 5.0 3.2
2016-Aug-22 04:00N 69°00' W 106°36'1110.8 1012.5 5.0 3.7
2016-Aug-22 03:00N 69°00' W 106°06'1212.3 1011.2 5.5 3.7
2016-Aug-22 02:00N 68°54' W 105°36'1110.5 1009.9 5.7 4.2
2016-Aug-22 01:00N 69°00' W 105°12'6 6.4 1008.7 6.3 4.8
2016-Aug-22 00:00N 69°06' W 105°06'0 0.0 1007.9 6.7 4.8
2016-Aug-21 23:00N 69°06' W 105°06'0 0.0 1006.8 8.7 6.5
2016-Aug-21 22:00N 69°06' W 105°06'0 0.0 1005.4 15.010.4
2016-Aug-21 21:00N 69°06' W 105°06'0 0.0 1005.0 13.7 9.2
2016-Aug-21 20:00N 69°06' W 105°06'0 0.0 1005.1 14.6 8.9
2016-Aug-21 19:00N 69°06' W 105°06'0 0.0 1004.9 16.7 9.7
2016-Aug-21 18:00N 69°06' W 105°06'0 0.0 1004.6 15.010.1
2016-Aug-21 17:00N 69°06' W 105°06'0 0.0 1004.7 14.110.2
2016-Aug-21 16:00N 69°06' W 105°06'0 0.0 1004.7 15.7 9.8
2016-Aug-21 15:00N 69°06' W 105°06'0 0.0 1004.4 12.7 9.4
2016-Aug-21 14:00N 69°06' W 105°06'0 0.0 1004.3 12.1 9.1
2016-Aug-21 13:00N 69°06' W 105°06'0 0.0 1004.5 12.7 8.5
2016-Aug-21 12:00N 69°06' W 105°06'0 0.0 1004.6 11.2 8.8
2016-Aug-21 11:00N 69°06' W 105°06'0 0.0 1004.8 10.3 8.6
2016-Aug-21 10:00N 69°06' W 105°06'0 0.0 1005.0 9.8 8.7
2016-Aug-21 09:00N 69°06' W 105°06'0 0.0 1005.4 9.8 8.7
2016-Aug-21 08:00N 69°06' W 105°06'0 0.0 1005.8 9.8 8.5
2016-Aug-21 07:00N 69°06' W 105°06'0 0.0 1006.1 9.8 8.5
2016-Aug-21 06:00N 69°06' W 105°06'0 0.0 1006.4 9.7 8.5
2016-Aug-21 05:00N 69°06' W 105°06'0 0.0 1006.7 9.8 8.4
2016-Aug-21 04:00N 69°06' W 105°06'0 0.0 1007.0 10.1 8.4
2016-Aug-21 03:00N 69°06' W 105°06'0 0.0 1007.2 11.0 8.6
2016-Aug-21 02:00N 69°06' W 105°06'0 0.0 1007.6 12.5 9.2
2016-Aug-21 01:00N 69°06' W 105°06'0 0.0 1008.0 15.0 9.8
2016-Aug-21 00:00N 69°06' W 105°06'6 6.0 1008.1 16.5 9.9
2016-Aug-20 23:00N 69°00' W 105°06'7 7.4 1008.2 15.4 9.4
2016-Aug-20 22:00N 69°06' W 105°18'0 0.0 1008.6 15.5 9.3
2016-Aug-20 21:00N 69°06' W 105°18'0 0.0 1008.9 15.9 9.2
2016-Aug-20 20:00N 69°06' W 105°18'0 0.0 1009.2 13.3 8.6
2016-Aug-20 19:00N 69°06' W 105°18'0 0.0 1009.1 13.7 8.8
2016-Aug-20 18:00N 69°06' W 105°18'0 0.0 1009.2 14.6 8.6
2016-Aug-20 17:00N 69°06' W 105°18'0 0.0 1009.0 13.8 9.0
2016-Aug-20 16:00N 69°06' W 105°18'1212.2 1009.2 11.6 8.8
2016-Aug-20 15:00N 68°54' W 105°24'9 8.8 1009.2 9.6 8.0
2016-Aug-20 14:00N 68°48' W 105°06'1616.4 1008.7 8.8 7.7
2016-Aug-20 13:00N 68°42' W 104°24'1313.1 1008.8 8.9 7.4
2016-Aug-20 12:00N 68°42' W 103°48'1313.1 1008.7 8.3 6.9
2016-Aug-20 11:00N 68°42' W 103°12'1313.1 1008.9 8.0 6.0
2016-Aug-20 10:00N 68°42' W 102°36'1212.4 1009.0 8.4 5.6
2016-Aug-20 09:00N 68°48' W 102°06'1616.1 1009.6 7.6 4.6
2016-Aug-20 08:00N 69°00' W 101°36'1212.3 1010.3 6.8 3.3
2016-Aug-20 07:00N 69°06' W 101°06'1616.0 1011.1 5.9 2.6
2016-Aug-20 06:00N 69°18' W 100°36'1010.4 1011.7 5.1 2.2
2016-Aug-20 05:00N 69°24' W 100°12'1413.6 1011.7 4.6 1.8
2016-Aug-20 04:00N 69°36' W 099°54'1413.5 1011.9 3.8 1.0
2016-Aug-20 03:00N 69°48' W 099°36'1919.0 1012.5 3.4 0.6
2016-Aug-20 02:00N 70°06' W 099°18'1313.5 1012.6 3.4 0.8
2016-Aug-20 01:00N 70°18' W 099°00'6 6.3 1012.6 3.5 0.9
2016-Aug-20 00:00N 70°24' W 098°54'1313.4 1013.0 3.2 1.1
2016-Aug-19 23:00N 70°36' W 098°36'1313.4 1013.2 3.0 1.2
2016-Aug-19 22:00N 70°48' W 098°18'1313.4 1013.6 2.5 1.0
2016-Aug-19 21:00N 71°00' W 098°00'1414.3 1013.5 2.4 0.6
2016-Aug-19 20:00N 71°12' W 097°36'8 8.3 1013.6 2.1 0.6
2016-Aug-19 19:00N 71°18' W 097°18'8 8.3 1014.5 2.4 0.2
2016-Aug-19 18:00N 71°24' W 097°00'1414.2 1013.9 2.2 0.5
2016-Aug-19 17:00N 71°36' W 096°36'1414.2 1013.5 2.5 0.5
2016-Aug-19 16:00N 71°48' W 096°12'8 8.2 1013.5 2.4 0.4
2016-Aug-19 15:00N 71°54' W 095°54'7 7.5 1014.3 2.3-0.0
2016-Aug-19 14:00N 71°54' W 095°30'1111.1 1014.8 2.3-0.4
2016-Aug-19 13:00N 72°00' W 095°00'1111.1 1015.7 2.4-1.1
2016-Aug-19 12:00N 72°00' W 094°24'1111.1 1016.4 3.0-2.1
2016-Aug-19 11:00N 71°54' W 093°54'10 9.6 1016.8 2.4-0.8
2016-Aug-19 10:00N 72°00' W 093°30'8 8.2 1016.7 1.6-1.7
2016-Aug-19 09:00N 72°06' W 093°12'1414.1 1017.0 1.2-2.0
2016-Aug-19 08:00N 72°18' W 092°48'9 9.4 1016.6 1.0-2.5
2016-Aug-19 07:00N 72°24' W 092°24'9 9.4 1016.4 1.6-1.6
2016-Aug-19 06:00N 72°30' W 092°00'9 9.4 1016.0 1.9-1.2
2016-Aug-19 05:00N 72°36' W 091°36'9 9.3 1015.9 1.6-1.8
2016-Aug-19 04:00N 72°42' W 091°12'1413.9 1015.8 1.3-1.6
2016-Aug-19 03:00N 72°54' W 090°48'9 9.2 1015.2 1.7-1.7
2016-Aug-19 02:00N 73°00' W 090°24'8 8.0 1014.9 1.7-1.1
2016-Aug-19 01:00N 73°06' W 090°06'1313.1 1014.7 1.7-1.2
2016-Aug-19 00:00N 73°18' W 089°48'7 6.9 1014.4 1.9-2.6
2016-Aug-18 23:00N 73°24' W 089°36'1514.7 1013.8 1.3-1.1
2016-Aug-18 22:00N 73°36' W 089°06'3 3.4 1013.2 1.0-2.6
2016-Aug-18 21:00N 73°36' W 088°54'1615.7 1012.7 0.5-4.0
2016-Aug-18 20:00N 73°48' W 088°18'1211.7 1011.3 -0.4-2.1
2016-Aug-18 19:00N 73°54' W 087°42'1010.0 1010.8 0.1-4.5
2016-Aug-18 18:00N 73°54' W 087°06'1211.6 1009.4 0.6-4.1
2016-Aug-18 17:00N 74°00' W 086°30'0 0.0 1008.6 0.8-3.8
2016-Aug-18 16:00N 74°00' W 086°30'1514.6 1007.8 0.9-3.3
2016-Aug-18 15:00N 73°54' W 085°42'1211.6 1006.8 1.4-3.1
2016-Aug-18 14:00N 73°54' W 085°00'1010.0 1005.9 1.4-2.8
2016-Aug-18 13:00N 73°54' W 084°24'1211.6 1005.5 1.8-2.2
2016-Aug-18 12:00N 73°54' W 083°42'   1004.9 2.0-1.5

Dump ship's entire track history